Time;durP1;ratioP1;P1;durP2;ratioP2;P2;SDS_P1;SDS_P2;PMS_P1;PMS_P2;Temp;Humidity;BMP_temperature;BMP_pressure;BME280_temperature;BME280_humidity;BME280_pressure;Samples;Min_cycle;Max_cycle;Signal;HPM_P1;HPM_P2
2021/12/17 00:04:49;;;;;;;23.83;9.35;;;;;;;4.35;92.44;101892.92;1633637;87;25800;-78
2021/12/17 00:07:10;;;;;;;34.90;8.53;;;;;;;4.33;92.44;101888.21;1634323;87;25972;-78
2021/12/17 00:09:38;;;;;;;28.50;9.23;;;;;;;4.31;92.50;101880.86;1636486;86;27020;-78
2021/12/17 00:12:12;;;;;;;30.30;9.03;;;;;;;4.32;92.59;101882.56;1636309;86;25785;-78
2021/12/17 00:14:41;;;;;;;26.17;8.33;;;;;;;4.32;92.64;101886.03;1635884;86;25856;-78
2021/12/17 00:17:14;;;;;;;37.60;8.68;;;;;;;4.31;92.64;101881.70;1632950;87;25925;-78
2021/12/17 00:20:02;;;;;;;25.12;8.85;;;;;;;4.32;92.71;101881.23;1635094;87;25837;-77
2021/12/17 00:48:22;;;;;;;28.57;8.33;;;;;;;4.39;92.93;101869.17;1633957;87;26484;-78
2021/12/17 00:49:25;;;;;;;24.25;7.12;;;;;;;4.39;92.95;101862.07;1635921;86;28371;-78
2021/12/17 00:52:02;;;;;;;22.45;7.08;;;;;;;4.40;93.11;101861.13;1607508;87;25980;-78
2021/12/17 00:54:41;;;;;;;22.85;7.20;;;;;;;4.40;93.11;101861.13;1632659;87;25909;-78
2021/12/17 00:57:23;;;;;;;24.95;7.83;;;;;;;4.42;93.14;101874.27;1636358;87;25798;-78
2021/12/17 00:59:53;;;;;;;23.98;7.70;;;;;;;4.45;93.17;101871.36;1632010;87;25354;-77
2021/12/17 01:02:27;;;;;;;31.82;7.97;;;;;;;4.47;93.11;101862.83;1636399;87;27473;-78
2021/12/17 01:04:59;;;;;;;26.07;6.95;;;;;;;4.48;93.11;101858.73;1633241;87;25954;-77
2021/12/17 01:07:31;;;;;;;18.57;5.67;;;;;;;4.48;93.09;101852.57;1608514;87;25864;-79
2021/12/17 01:10:00;;;;;;;29.57;7.40;;;;;;;4.49;93.17;101848.97;1635772;87;26720;-78
2021/12/17 01:12:28;;;;;;;28.00;7.42;;;;;;;4.49;93.14;101853.77;1636006;87;25805;-78
2021/12/17 01:15:15;;;;;;;27.73;6.25;;;;;;;4.51;93.12;101853.67;1570464;90;28418;-78
2021/12/17 01:17:52;;;;;;;22.35;7.05;;;;;;;4.51;93.07;101850.52;1628209;86;25923;-78
2021/12/17 01:23:10;;;;;;;21.93;6.08;;;;;;;4.51;93.18;101853.16;1635910;87;25845;-78
2021/12/17 01:40:37;;;;;;;;;;;;;;;4.51;93.27;101855.82;1602642;86;25890;-78
2021/12/17 01:42:05;;;;;;;23.67;6.35;;;;;;;4.52;93.26;101853.55;1641352;86;27492;-78
2021/12/17 01:44:36;;;;;;;29.95;6.78;;;;;;;4.52;93.36;101856.67;1618282;87;26006;-78
2021/12/17 01:47:06;;;;;;;27.85;7.67;;;;;;;4.54;93.35;101862.70;1636352;87;25737;-78
2021/12/17 02:00:26;;;;;;;23.77;7.25;;;;;;;4.51;93.16;101867.76;1633175;87;25863;-78
2021/12/17 02:02:57;;;;;;;30.12;8.95;;;;;;;4.53;93.18;101862.36;1610134;87;26442;-78
2021/12/17 02:05:33;;;;;;;21.05;6.67;;;;;;;4.54;93.15;101859.58;1635658;87;26009;-78
2021/12/17 02:08:00;;;;;;;25.57;6.80;;;;;;;4.54;93.05;101867.54;1636121;86;28399;-78
2021/12/17 02:32:25;;;;;;;21.97;6.53;;;;;;;4.54;92.97;101848.97;1633173;87;25990;-78
2021/12/17 02:37:29;;;;;;;22.67;6.58;;;;;;;4.54;92.87;101840.16;1633747;87;25768;-78
2021/12/17 02:45:32;;;;;;;27.27;6.62;;;;;;;4.51;92.90;101833.77;1637095;87;25847;-78
2021/12/17 02:48:12;;;;;;;37.93;8.85;;;;;;;4.52;92.87;101835.45;1636313;86;27551;-78
2021/12/17 02:50:46;;;;;;;24.80;6.30;;;;;;;4.51;92.87;101829.28;1636564;85;25932;-78
2021/12/17 02:53:15;;;;;;;26.02;6.37;;;;;;;4.52;92.93;101829.66;1635800;87;25788;-78
2021/12/17 02:55:46;;;;;;;20.08;5.72;;;;;;;4.52;92.84;101816.41;1632587;87;25786;-78
2021/12/17 02:58:13;;;;;;;35.98;8.05;;;;;;;4.52;92.83;101818.20;1636723;87;25805;-78
2021/12/17 03:00:42;;;;;;;27.58;7.05;;;;;;;4.51;92.76;101817.35;1635951;85;27724;-78
2021/12/17 03:03:09;;;;;;;22.58;6.28;;;;;;;4.50;92.69;101809.05;1635759;87;26508;-78
2021/12/17 03:05:39;;;;;;;26.65;6.62;;;;;;;4.50;92.70;101820.98;1637199;87;25820;-78
2021/12/17 03:08:07;;;;;;;27.13;7.47;;;;;;;4.50;92.70;101825.44;1636955;87;25792;-78
2021/12/17 03:10:34;;;;;;;30.95;6.90;;;;;;;4.51;92.63;101819.18;1636626;86;25957;-78
2021/12/17 03:13:03;;;;;;;24.63;6.12;;;;;;;4.50;92.63;101822.78;1636518;87;27506;-78
2021/12/17 03:15:38;;;;;;;21.02;5.92;;;;;;;4.48;92.42;101818.93;1636374;87;25774;-78
2021/12/17 03:23:41;;;;;;;22.87;5.72;;;;;;;4.37;92.41;101824.69;1634554;87;26479;-79
2021/12/17 03:26:14;;;;;;;29.02;6.65;;;;;;;4.33;92.25;101826.73;1636042;87;27519;-78
2021/12/17 03:28:46;;;;;;;25.97;5.50;;;;;;;4.27;92.21;101831.19;1635897;87;25956;-78
2021/12/17 03:31:14;;;;;;;26.52;5.87;;;;;;;4.24;92.24;101820.80;1636035;87;25748;-78
2021/12/17 03:33:44;;;;;;;27.13;5.67;;;;;;;4.21;92.32;101823.70;1636649;87;26098;-78
2021/12/17 03:36:14;;;;;;;20.93;5.90;;;;;;;4.20;92.43;101811.39;1636627;87;26503;-78
2021/12/17 03:38:48;;;;;;;20.20;5.00;;;;;;;4.19;92.44;101812.33;1636754;85;28337;-78
2021/12/17 03:41:22;;;;;;;26.02;6.05;;;;;;;4.17;92.42;101802.33;1636845;87;25810;-78
2021/12/17 03:43:52;;;;;;;25.88;4.92;;;;;;;4.15;92.46;101790.17;1631523;87;26113;-78
2021/12/17 03:46:20;;;;;;;22.48;5.60;;;;;;;4.11;92.50;101785.56;1636733;87;26429;-78
2021/12/17 03:48:48;;;;;;;26.30;5.10;;;;;;;4.09;92.58;101790.14;1632698;87;25968;-78
2021/12/17 03:51:16;;;;;;;19.90;5.30;;;;;;;4.12;92.63;101794.37;1635787;87;27506;-78
2021/12/17 03:53:48;;;;;;;23.92;5.55;;;;;;;4.05;92.49;101790.01;1635829;87;26537;-78
2021/12/17 03:56:14;;;;;;;19.00;5.30;;;;;;;4.04;92.53;101791.46;1635737;87;25759;-78
2021/12/17 03:58:41;;;;;;;32.17;5.78;;;;;;;4.01;92.36;101787.70;1636847;87;26465;-78
2021/12/17 04:01:07;;;;;;;25.88;6.17;;;;;;;3.97;92.26;101792.40;1636901;87;26139;-78
2021/12/17 04:03:34;;;;;;;30.80;7.42;;;;;;;3.94;92.28;101780.69;1636574;87;27494;-78
2021/12/17 04:06:03;;;;;;;22.95;6.42;;;;;;;3.91;92.19;101784.91;1635718;87;25791;-78
2021/12/17 04:08:47;;;;;;;22.80;7.15;;;;;;;3.87;92.04;101785.60;1636122;87;25779;-78
2021/12/17 04:11:19;;;;;;;33.85;6.60;;;;;;;3.80;91.93;101783.55;1633578;87;25879;-78
2021/12/17 04:13:51;;;;;;;26.02;6.67;;;;;;;3.75;91.92;101792.30;1635868;87;25858;-78
2021/12/17 04:16:12;;;;;;;26.33;5.92;;;;;;;3.70;91.98;101788.66;1631744;87;28382;-78
2021/12/17 04:18:41;;;;;;;24.45;5.28;;;;;;;3.68;92.19;101787.08;1636218;87;25610;-78
2021/12/17 04:21:14;;;;;;;20.32;6.58;;;;;;;3.65;92.12;101792.16;1636450;87;25310;-78
2021/12/17 04:23:38;;;;;;;26.65;6.28;;;;;;;3.62;92.14;101785.74;1635396;87;26463;-78
2021/12/17 04:26:05;;;;;;;23.67;5.90;;;;;;;3.61;92.17;101793.81;1636183;87;25767;-78
2021/12/17 04:28:31;;;;;;;24.50;5.65;;;;;;;3.59;92.23;101803.18;1637013;87;27467;-78
2021/12/17 04:30:58;;;;;;;25.72;6.25;;;;;;;3.57;92.16;101798.47;1636528;87;26455;-78
2021/12/17 04:33:24;;;;;;;25.97;6.62;;;;;;;3.51;92.18;101798.08;1636422;87;25916;-78
2021/12/17 04:35:51;;;;;;;23.00;6.20;;;;;;;3.47;92.31;101792.17;1636619;87;25762;-78
2021/12/17 04:38:21;;;;;;;20.52;7.25;;;;;;;3.45;92.50;101797.20;1636235;87;26032;-78
2021/12/17 04:40:49;;;;;;;33.25;8.03;;;;;;;3.42;92.57;101799.59;1636690;87;27363;-79
2021/12/17 04:43:36;;;;;;;23.38;6.75;;;;;;;3.43;92.66;101808.39;1632182;87;25796;-78
2021/12/17 04:46:37;;;;;;;18.62;6.50;;;;;;;3.42;92.76;101801.42;1613947;88;25895;-78
2021/12/17 04:59:22;;;;;;;18.85;5.55;;;;;;;3.35;93.31;101801.02;1634037;87;25791;-78
2021/12/17 05:01:49;;;;;;;24.10;6.35;;;;;;;3.35;93.49;101804.98;1636373;87;26057;-78
2021/12/17 05:04:16;;;;;;;25.23;5.90;;;;;;;3.35;93.61;101803.67;1635651;87;26223;-78
2021/12/17 05:06:43;;;;;;;22.17;6.12;;;;;;;3.36;93.63;101814.61;1636712;87;28338;-78
2021/12/17 05:09:23;;;;;;;22.27;5.90;;;;;;;3.34;93.68;101813.02;1636119;86;25847;-78
2021/12/17 05:18:14;;;;;;;25.90;6.28;;;;;;;3.32;93.75;101812.29;1631368;87;25778;-78
2021/12/17 05:19:45;;;;;;;16.10;5.87;;;;;;;3.30;93.66;101820.35;1643291;86;27479;-80
2021/12/17 05:22:08;;;;;;;18.45;6.53;;;;;;;3.29;93.87;101823.98;1635732;87;25973;-80
2021/12/17 05:24:34;;;;;;;21.62;6.12;;;;;;;3.29;93.90;101829.74;1636608;86;26216;-80
2021/12/17 05:27:00;;;;;;;29.48;7.50;;;;;;;3.29;93.92;101825.77;1636569;87;26180;-80
2021/12/17 05:29:28;;;;;;;28.05;6.37;;;;;;;3.29;93.96;101819.16;1636638;86;25931;-80
2021/12/17 05:31:54;;;;;;;26.50;6.62;;;;;;;3.27;93.93;101817.09;1636232;87;27637;-80
2021/12/17 05:34:21;;;;;;;24.00;7.58;;;;;;;3.28;93.91;101820.09;1636076;87;25838;-80
2021/12/17 05:36:52;;;;;;;;;;;;;;;3.26;93.92;101826.83;1638492;87;25757;-78
2021/12/17 05:39:20;;;;;;;22.65;6.67;;;;;;;3.24;93.93;101831.86;1635641;87;25857;-77
2021/12/17 05:41:47;;;;;;;24.72;6.95;;;;;;;3.24;94.18;101837.16;1635716;87;26062;-78
2021/12/17 05:44:21;;;;;;;23.85;7.15;;;;;;;3.25;94.30;101823.80;1607481;87;28328;-77
2021/12/17 05:46:50;;;;;;;31.57;8.33;;;;;;;3.27;94.38;101825.03;1635658;87;26556;-77
2021/12/17 05:49:24;;;;;;;28.50;5.83;;;;;;;3.27;94.37;101818.42;1636111;86;25880;-77
2021/12/17 05:51:52;;;;;;;23.30;6.92;;;;;;;3.27;94.49;101827.22;1636492;87;25946;-77
2021/12/17 05:54:20;;;;;;;24.27;7.72;;;;;;;3.27;94.53;101818.42;1636187;87;25867;-77
2021/12/17 05:56:47;;;;;;;25.35;6.40;;;;;;;3.30;94.66;101811.55;1632919;86;28361;-78
2021/12/17 05:59:14;;;;;;;19.17;6.45;;;;;;;3.30;94.93;101804.94;1609781;87;26604;-78
2021/12/17 06:01:40;;;;;;;24.35;7.45;;;;;;;3.29;94.91;101796.17;1636578;87;26092;-80
2021/12/17 06:04:07;;;;;;;23.42;6.75;;;;;;;3.31;95.05;101796.91;1636221;87;25938;-80
2021/12/17 06:06:38;;;;;;;20.43;8.20;;;;;;;3.30;95.25;101783.75;1634352;87;25841;-80
2021/12/17 06:09:08;;;;;;;20.17;6.70;;;;;;;3.33;95.28;101789.70;1635614;87;28584;-80
2021/12/17 06:11:36;;;;;;;23.80;7.15;;;;;;;3.33;95.25;101794.14;1636099;87;25913;-80
2021/12/17 06:14:05;;;;;;;35.50;8.23;;;;;;;3.35;95.34;101789.10;1633031;87;25798;-80
2021/12/17 06:16:34;;;;;;;26.20;6.95;;;;;;;3.37;95.34;101796.92;1636471;87;25814;-80
2021/12/17 06:19:03;;;;;;;25.20;7.33;;;;;;;3.39;95.36;101789.72;1636113;87;25930;-82
2021/12/17 06:21:30;;;;;;;27.22;7.10;;;;;;;3.42;95.37;101790.83;1636522;87;28261;-82
2021/12/17 06:23:58;;;;;;;26.55;7.80;;;;;;;3.45;95.43;101803.36;1636488;87;25878;-80
2021/12/17 06:26:25;;;;;;;28.65;8.43;;;;;;;3.44;95.37;101804.33;1636775;87;26024;-82
2021/12/17 06:28:52;;;;;;;26.33;7.70;;;;;;;3.46;95.38;101804.20;1636505;87;26584;-81
2021/12/17 06:31:23;;;;;;;23.22;6.92;;;;;;;3.49;95.39;101806.14;1637328;87;25630;-82
2021/12/17 06:33:49;;;;;;;22.10;7.08;;;;;;;3.51;95.32;101809.52;1611517;87;28260;-82
2021/12/17 06:36:16;;;;;;;29.27;6.97;;;;;;;3.52;95.29;101803.75;1635768;87;25836;-81
2021/12/17 06:38:43;;;;;;;18.52;6.70;;;;;;;3.52;95.29;101804.61;1635961;87;25918;-82
2021/12/17 06:41:09;;;;;;;29.95;8.40;;;;;;;3.53;95.33;101799.66;1610521;87;25838;-82
2021/12/17 06:43:42;;;;;;;24.37;7.60;;;;;;;3.54;95.25;101801.84;1636199;87;26433;-82
2021/12/17 06:48:40;;;;;;;26.42;7.78;;;;;;;3.55;95.09;101809.66;1636593;86;25404;-81
2021/12/17 07:00:06;;;;;;;20.65;6.20;;;;;;;3.53;95.22;101791.72;1634639;87;27499;-80
2021/12/17 07:10:57;;;;;;;24.15;8.83;;;;;;;3.52;95.07;101806.41;1635699;86;25877;-79
2021/12/17 07:19:49;;;;;;;24.92;6.85;;;;;;;3.55;95.06;101809.66;1632950;87;26564;-79
2021/12/17 07:39:55;;;;;;;26.60;7.62;;;;;;;3.51;95.26;101827.21;1633377;87;28705;-79
2021/12/17 07:42:24;;;;;;;24.23;7.95;;;;;;;3.50;95.32;101838.31;1636976;87;25817;-80
2021/12/17 07:44:57;;;;;;;26.33;8.05;;;;;;;3.51;95.33;101839.98;1635744;87;26414;-79
2021/12/17 07:47:28;;;;;;;28.65;8.65;;;;;;;3.54;95.53;101837.13;1635093;87;26584;-79
2021/12/17 07:50:12;;;;;;;23.73;7.00;;;;;;;3.55;95.32;101835.33;1636267;87;25962;-79
2021/12/17 07:52:49;;;;;;;18.42;6.12;;;;;;;3.52;95.47;101852.29;1634620;87;27560;-80
2021/12/17 07:55:16;;;;;;;24.00;7.50;;;;;;;3.52;95.52;101848.31;1635864;87;26715;-80
2021/12/17 07:57:42;;;;;;;20.23;6.90;;;;;;;3.52;95.54;101869.51;1637039;87;26182;-80
2021/12/17 08:00:10;;;;;;;15.83;6.35;;;;;;;3.52;95.56;101869.98;1636379;87;26566;-80
2021/12/17 08:02:42;;;;;;;24.98;7.37;;;;;;;3.53;95.56;101880.45;1636692;87;25800;-81
2021/12/17 08:05:25;;;;;;;28.05;7.62;;;;;;;3.55;95.52;101886.48;1585747;88;28425;-80
2021/12/17 08:07:52;;;;;;;16.57;7.10;;;;;;;3.54;95.67;101895.41;1636491;87;25780;-80
2021/12/17 08:10:18;;;;;;;20.48;7.00;;;;;;;3.55;95.66;101905.53;1636665;87;25740;-80
2021/12/17 08:12:44;;;;;;;21.68;6.37;;;;;;;3.55;95.50;101905.03;1635783;87;25877;-79
2021/12/17 08:15:13;;;;;;;21.30;5.00;;;;;;;3.56;95.62;101905.41;1636257;87;25919;-79
2021/12/17 08:18:03;;;;;;;18.10;5.83;;;;;;;3.57;95.56;101911.56;1610763;87;28289;-79
2021/12/17 08:26:03;;;;;;;22.58;7.97;;;;;;;3.55;95.52;101919.60;1636449;87;25856;-79
2021/12/17 08:28:17;;;;;;;21.97;6.00;;;;;;;3.55;95.52;101918.78;1634669;87;25577;-79
2021/12/17 08:30:44;;;;;;;21.93;6.00;;;;;;;3.55;95.56;101922.25;1636825;87;28421;-79
2021/12/17 08:33:19;;;;;;;27.20;5.50;;;;;;;3.59;95.40;101926.38;1636303;86;25949;-79
2021/12/17 08:35:43;;;;;;;18.50;5.65;;;;;;;3.59;95.38;101917.09;1618565;86;25910;-79
2021/12/17 08:38:11;;;;;;;18.07;6.03;;;;;;;3.60;95.35;101925.42;1635960;87;26404;-80
2021/12/17 08:40:39;;;;;;;24.27;6.35;;;;;;;3.60;95.32;101921.45;1636494;86;25881;-79
2021/12/17 08:43:06;;;;;;;19.32;5.35;;;;;;;3.59;95.28;101918.42;1636258;87;27535;-80
2021/12/17 08:45:34;;;;;;;22.55;5.80;;;;;;;3.59;95.24;101913.62;1636066;87;26109;-80
2021/12/17 08:48:02;;;;;;;16.37;5.40;;;;;;;3.59;95.09;101914.45;1625368;87;25872;-80
2021/12/17 08:50:33;;;;;;;19.42;6.40;;;;;;;3.59;95.09;101912.30;1634555;87;26558;-80
2021/12/17 08:52:59;;;;;;;18.00;5.10;;;;;;;3.61;95.16;101915.69;1636211;86;25445;-79
2021/12/17 08:55:26;;;;;;;13.88;6.20;;;;;;;3.63;95.10;101906.67;1636341;87;28349;-80
2021/12/17 08:57:53;;;;;;;18.67;6.17;;;;;;;3.66;95.10;101912.20;1635788;87;25350;-80
2021/12/17 09:00:19;;;;;;;18.07;5.35;;;;;;;3.67;94.99;101905.97;1635894;87;25803;-79
2021/12/17 09:02:51;;;;;;;;;;;;;;;3.68;95.13;101903.19;1637931;86;25785;-80
2021/12/17 09:05:21;;;;;;;20.25;5.83;;;;;;;3.71;95.07;101902.13;1600673;87;25890;-80
2021/12/17 09:07:50;;;;;;;22.02;6.55;;;;;;;3.69;95.19;101902.25;1635639;87;27669;-79
2021/12/17 09:10:30;;;;;;;16.87;4.63;;;;;;;3.72;94.99;101899.87;1640591;86;25982;-79
2021/12/17 09:12:56;;;;;;;23.22;6.00;;;;;;;3.72;94.71;101893.23;1608857;88;26096;-79
2021/12/17 09:15:23;;;;;;;15.10;5.35;;;;;;;3.71;94.65;101893.71;1680574;85;26616;-79
2021/12/17 09:18:00;;;;;;;21.05;6.40;;;;;;;3.73;94.84;101898.89;1654728;85;26023;-80
2021/12/17 09:20:26;;;;;;;17.30;5.05;;;;;;;3.76;94.71;101898.68;1680221;85;26992;-79
2021/12/17 09:22:54;;;;;;;20.48;5.40;;;;;;;3.76;94.50;101899.50;1649528;86;25912;-79
2021/12/17 09:25:21;;;;;;;14.15;5.00;;;;;;;3.78;94.86;101897.62;1645805;86;26067;-79
2021/12/17 09:27:55;;;;;;;20.88;5.87;;;;;;;3.81;94.44;101893.88;1636345;87;25854;-79
2021/12/17 09:30:23;;;;;;;18.92;6.53;;;;;;;3.82;94.46;101907.51;1622249;86;25689;-79
2021/12/17 09:32:50;;;;;;;16.48;6.12;;;;;;;3.82;94.54;101891.13;1643419;86;28467;-79
2021/12/17 09:35:18;;;;;;;21.45;6.28;;;;;;;3.84;94.47;101885.71;1636935;87;25978;-79
2021/12/17 09:37:44;;;;;;;24.20;5.87;;;;;;;3.86;94.44;101885.97;1636148;87;26553;-79
2021/12/17 09:40:12;;;;;;;18.60;6.30;;;;;;;3.90;94.28;101885.25;1636341;86;25865;-79
2021/12/17 09:42:40;;;;;;;17.15;5.87;;;;;;;3.91;94.40;101887.78;1637142;85;26035;-80
2021/12/17 09:45:07;;;;;;;20.25;6.47;;;;;;;3.96;94.36;101888.77;1635505;87;27463;-80
2021/12/17 09:47:34;;;;;;;18.10;5.83;;;;;;;4.02;94.47;101898.10;1635770;87;25898;-80
2021/12/17 09:50:00;;;;;;;18.07;5.55;;;;;;;4.04;93.97;101904.98;1636504;86;26008;-80
2021/12/17 09:52:26;;;;;;;18.23;6.33;;;;;;;4.03;93.75;101894.00;1636344;85;26371;-79
2021/12/17 09:54:55;;;;;;;17.95;6.17;;;;;;;4.06;94.17;101899.56;1636580;87;26063;-79
2021/12/17 09:57:21;;;;;;;17.32;5.58;;;;;;;4.07;93.88;101898.11;1636870;87;28362;-79
2021/12/17 09:59:48;;;;;;;15.28;5.90;;;;;;;4.07;94.01;101892.81;1636726;86;26016;-78
2021/12/17 10:02:14;;;;;;;19.25;6.47;;;;;;;4.12;94.15;101902.61;1636318;87;25937;-79
2021/12/17 10:04:42;;;;;;;27.52;7.55;;;;;;;4.15;93.92;101902.87;1636329;86;26566;-78
2021/12/17 10:07:24;;;;;;;22.60;6.28;;;;;;;4.16;93.79;101900.56;1637248;86;25927;-79
2021/12/17 10:09:59;;;;;;;22.65;5.80;;;;;;;4.19;93.75;101906.98;1637037;87;27650;-80
2021/12/17 10:12:32;;;;;;;24.90;7.50;;;;;;;4.18;93.59;101904.80;1636623;86;25937;-79
2021/12/17 10:15:13;;;;;;;21.27;6.30;;;;;;;4.19;93.49;101899.84;1636508;87;25843;-80
2021/12/17 10:18:00;;;;;;;21.33;5.70;;;;;;;4.20;93.41;101900.70;1636529;87;26563;-80
2021/12/17 10:20:31;;;;;;;19.75;6.65;;;;;;;4.22;93.57;101902.75;1637111;87;25874;-80
2021/12/17 10:23:05;;;;;;;20.90;6.75;;;;;;;4.23;93.49;101892.05;1637316;87;27487;-79
2021/12/17 10:25:35;;;;;;;25.08;5.47;;;;;;;4.25;93.52;101894.11;1636985;87;25965;-82
2021/12/17 10:28:05;;;;;;;14.17;5.90;;;;;;;4.26;93.12;101901.09;1637054;86;25972;-82
2021/12/17 10:30:39;;;;;;;22.40;6.10;;;;;;;4.25;93.17;101898.09;1636284;87;26116;-82
2021/12/17 10:33:12;;;;;;;16.67;6.33;;;;;;;4.27;93.09;101905.92;1636331;87;25499;-81
2021/12/17 10:35:43;;;;;;;18.62;6.90;;;;;;;4.28;93.40;101902.29;1609549;87;27474;-82
2021/12/17 10:38:11;;;;;;;14.78;5.67;;;;;;;4.30;93.14;101903.05;1637259;86;25848;-81
2021/12/17 10:41:12;;;;;;;20.30;7.85;;;;;;;4.32;93.39;101900.63;1636228;87;25905;-82
2021/12/17 10:43:26;;;;;;;20.75;7.78;;;;;;;4.34;93.09;101896.55;1628804;86;25854;-81
2021/12/17 10:46:05;;;;;;;21.40;6.90;;;;;;;4.33;93.11;101893.05;1616000;88;25934;-80
2021/12/17 10:48:37;;;;;;;21.70;5.65;;;;;;;4.37;93.03;101877.73;1635911;87;27371;-81
2021/12/17 10:51:16;;;;;;;17.35;5.60;;;;;;;4.35;92.54;101873.87;1615438;88;25854;-81
2021/12/17 10:53:55;;;;;;;20.20;5.42;;;;;;;4.33;92.06;101863.87;1636554;87;25858;-80
2021/12/17 10:56:37;;;;;;;15.48;6.12;;;;;;;4.33;92.37;101860.36;1613127;87;26078;-81
2021/12/17 10:59:10;;;;;;;14.95;4.42;;;;;;;4.31;91.78;101856.51;1636634;87;25347;-80
2021/12/17 11:01:51;;;;;;;17.82;5.90;;;;;;;4.31;91.34;101863.61;1633925;87;27469;-81
2021/12/17 11:04:35;;;;;;;15.93;4.80;;;;;;;4.31;91.61;101863.61;1633282;87;25352;-82
2021/12/17 11:07:06;;;;;;;10.53;4.55;;;;;;;4.30;91.48;101867.24;1633751;87;25729;-82
2021/12/17 11:09:53;;;;;;;15.13;5.00;;;;;;;4.29;90.81;101849.63;1637488;87;26564;-80
2021/12/17 11:12:41;;;;;;;11.83;3.95;;;;;;;4.31;91.39;101853.00;1637076;87;25927;-80
2021/12/17 11:15:26;;;;;;;14.38;4.95;;;;;;;4.34;91.19;101856.77;1636387;86;27452;-80
2021/12/17 11:17:56;;;;;;;15.53;5.20;;;;;;;4.36;91.12;101845.05;1636278;87;25773;-81
2021/12/17 11:20:33;;;;;;;14.58;4.47;;;;;;;4.37;90.64;101842.78;1630958;87;25846;-81
2021/12/17 11:23:07;;;;;;;11.85;4.10;;;;;;;4.41;90.88;101842.05;1639223;87;26548;-82
2021/12/17 11:25:35;;;;;;;11.55;4.37;;;;;;;4.44;90.98;101833.87;1637890;84;26484;-81
2021/12/17 11:28:04;;;;;;;8.03;2.90;;;;;;;4.49;90.80;101842.33;1637180;86;27467;-81
2021/12/17 11:30:34;;;;;;;15.63;4.97;;;;;;;4.54;90.01;101842.80;1636530;87;26225;-80
2021/12/17 11:33:03;;;;;;;11.85;3.65;;;;;;;4.54;89.58;101848.11;1636705;87;25836;-80
2021/12/17 11:35:32;;;;;;;9.83;3.60;;;;;;;4.56;89.76;101847.52;1636783;86;25823;-79
2021/12/17 11:38:06;;;;;;;7.62;3.10;;;;;;;4.57;88.83;101846.56;1637090;87;26494;-80
2021/12/17 11:40:40;;;;;;;17.17;4.42;;;;;;;4.59;88.80;101849.47;1634868;86;27518;-80
2021/12/17 11:43:37;;;;;;;12.53;4.25;;;;;;;4.61;88.58;101836.07;1633773;87;25896;-80
2021/12/17 11:46:09;;;;;;;17.32;3.83;;;;;;;4.63;88.64;101848.73;1636353;87;25902;-81
2021/12/17 11:48:35;;;;;;;12.33;4.97;;;;;;;4.69;88.22;101851.77;1637440;87;26541;-82
2021/12/17 11:51:17;;;;;;;14.98;3.52;;;;;;;4.74;88.91;101854.55;1637564;86;25339;-80
2021/12/17 11:54:00;;;;;;;14.23;3.98;;;;;;;4.80;88.11;101843.45;1634133;87;27999;-81
2021/12/17 11:56:41;;;;;;;10.78;3.87;;;;;;;4.79;87.04;101856.38;1635891;87;26406;-80
2021/12/17 11:59:28;;;;;;;7.87;2.98;;;;;;;4.77;86.49;101855.65;1634484;87;25938;-82
2021/12/17 12:02:05;;;;;;;15.78;4.92;;;;;;;4.76;86.35;101865.89;1636900;86;27090;-81
2021/12/17 12:04:40;;;;;;;14.80;4.87;;;;;;;4.72;86.75;101862.64;1637529;87;26093;-82
2021/12/17 12:07:13;;;;;;;9.20;3.75;;;;;;;4.71;86.25;101862.26;1633929;87;27512;-81
2021/12/17 12:10:14;;;;;;;9.98;3.55;;;;;;;4.69;86.50;101869.49;1637626;87;25846;-81
2021/12/17 12:12:52;;;;;;;15.08;3.95;;;;;;;4.67;87.14;101866.11;1633068;87;25993;-82
2021/12/17 12:15:30;;;;;;;13.35;4.28;;;;;;;4.66;86.88;101864.44;1637577;87;26552;-82
2021/12/17 12:18:09;;;;;;;10.82;4.58;;;;;;;4.67;86.64;101859.48;1637581;87;25933;-82
2021/12/17 12:20:52;;;;;;;10.58;4.30;;;;;;;4.66;87.17;101857.80;1634821;87;27570;-82
2021/12/17 12:23:36;;;;;;;11.18;3.52;;;;;;;4.65;86.51;101861.41;1635925;87;25824;-82
2021/12/17 12:26:08;;;;;;;10.85;3.75;;;;;;;4.65;86.43;101860.94;1637573;85;26486;-81
2021/12/17 12:29:06;;;;;;;15.63;3.95;;;;;;;4.68;87.10;101866.49;1637601;87;26543;-81
2021/12/17 12:31:43;;;;;;;13.22;4.87;;;;;;;4.71;87.37;101864.91;1628391;86;25441;-81
2021/12/17 12:34:35;;;;;;;12.73;4.20;;;;;;;4.68;86.83;101860.67;1636961;87;26954;-81
2021/12/17 12:37:18;;;;;;;9.88;4.28;;;;;;;4.67;87.24;101852.38;1637250;87;25773;-81
2021/12/17 12:39:57;;;;;;;16.20;4.65;;;;;;;4.68;87.25;101849.24;1636992;87;25599;-81
2021/12/17 12:42:25;;;;;;;15.28;4.90;;;;;;;4.66;87.46;101841.88;1636592;87;26644;-81
2021/12/17 12:44:57;;;;;;;13.18;4.65;;;;;;;4.65;87.21;101846.81;1634154;87;26236;-81
2021/12/17 12:47:32;;;;;;;11.45;4.35;;;;;;;4.63;87.53;101848.27;1637168;87;26946;-82
2021/12/17 12:50:07;;;;;;;12.88;5.60;;;;;;;4.63;87.73;101839.45;1637133;87;25993;-80
2021/12/17 12:52:43;;;;;;;18.80;7.10;;;;;;;4.64;87.83;101852.59;1636106;87;36344;-81
2021/12/17 12:55:38;;;;;;;13.93;4.80;;;;;;;4.62;87.74;101845.70;1633144;87;25768;-80
2021/12/17 12:58:10;;;;;;;11.00;4.17;;;;;;;4.63;87.67;101844.28;1637066;87;25909;-82
2021/12/17 13:00:57;;;;;;;12.58;4.65;;;;;;;4.64;87.63;101850.45;1637198;86;27538;-81
2021/12/17 13:03:32;;;;;;;14.65;5.30;;;;;;;4.65;87.70;101858.75;1637219;87;25807;-81
2021/12/17 13:06:01;;;;;;;11.05;4.08;;;;;;;4.65;87.92;101854.77;1635152;87;26309;-81
2021/12/17 13:08:31;;;;;;;14.07;4.33;;;;;;;4.67;87.72;101848.86;1637053;86;25902;-81
2021/12/17 13:11:01;;;;;;;11.25;4.35;;;;;;;4.67;87.88;101859.00;1637098;85;25937;-81
2021/12/17 13:13:35;;;;;;;16.00;4.78;;;;;;;4.68;87.62;101859.86;1638351;87;27646;-81
2021/12/17 13:16:19;;;;;;;23.67;6.00;;;;;;;4.68;87.99;101855.88;1637158;87;26642;-81
2021/12/17 13:21:42;;;;;;;16.52;5.20;;;;;;;4.69;88.07;101865.04;1635927;87;25862;-81
2021/12/17 13:24:17;;;;;;;17.25;6.08;;;;;;;4.68;87.77;101864.66;1636481;87;25884;-81
2021/12/17 13:26:54;;;;;;;22.22;5.60;;;;;;;4.68;87.99;101869.97;1628138;87;27494;-81
2021/12/17 13:29:32;;;;;;;9.63;3.55;;;;;;;4.70;88.22;101873.34;1634029;87;25922;-81
2021/12/17 13:32:03;;;;;;;12.90;3.90;;;;;;;4.72;88.24;101876.38;1637396;87;26104;-81
2021/12/17 13:34:37;;;;;;;17.70;4.47;;;;;;;4.72;88.15;101864.44;1637645;86;26570;-81
2021/12/17 13:37:09;;;;;;;18.52;5.45;;;;;;;4.68;88.12;101871.30;1637569;87;26641;-81
2021/12/17 13:39:41;;;;;;;19.05;4.90;;;;;;;4.66;88.38;101873.22;1637440;87;28066;-82
2021/12/17 13:42:10;;;;;;;20.17;5.10;;;;;;;4.66;88.43;101869.24;1637046;87;25341;-82
2021/12/17 13:44:44;;;;;;;19.17;5.12;;;;;;;4.66;88.54;101857.80;1635784;87;25771;-81
2021/12/17 13:47:16;;;;;;;14.85;4.50;;;;;;;4.64;88.45;101869.84;1637327;87;25825;-81
2021/12/17 13:49:48;;;;;;;15.28;5.40;;;;;;;4.63;88.36;101867.31;1637640;85;25949;-81
2021/12/17 13:52:16;;;;;;;18.30;4.97;;;;;;;4.63;88.48;101865.98;1616295;87;27536;-81
2021/12/17 13:54:45;;;;;;;17.10;5.17;;;;;;;4.61;88.46;101866.59;1637974;87;25914;-82
2021/12/17 13:57:14;;;;;;;19.12;5.70;;;;;;;4.61;88.44;101867.92;1636851;87;25835;-81
2021/12/17 13:59:39;;;;;;;11.43;4.03;;;;;;;4.62;88.53;101865.14;1636158;87;25981;-81
2021/12/17 14:02:10;;;;;;;13.10;4.22;;;;;;;4.65;88.59;101866.23;1637562;86;26061;-81
2021/12/17 14:04:36;;;;;;;13.72;4.47;;;;;;;4.64;88.57;101869.02;1618936;88;27575;-81
2021/12/17 14:07:08;;;;;;;13.85;4.60;;;;;;;4.64;88.71;101859.73;1636996;87;25948;-80
2021/12/17 14:09:35;;;;;;;13.78;4.70;;;;;;;4.64;88.60;101865.05;1637372;87;25854;-81
2021/12/17 14:12:27;;;;;;;12.25;5.55;;;;;;;4.65;88.61;101858.75;1637397;87;25927;-81
2021/12/17 14:15:04;;;;;;;15.28;4.92;;;;;;;4.65;88.78;101854.30;1636991;87;26225;-81
2021/12/17 14:17:36;;;;;;;17.32;4.60;;;;;;;4.67;88.93;101854.17;1637659;86;27461;-81
2021/12/17 14:20:11;;;;;;;14.58;4.95;;;;;;;4.69;88.87;101860.20;1634466;87;25558;-81
2021/12/17 14:22:44;;;;;;;14.90;6.00;;;;;;;4.70;88.96;101855.27;1637384;87;25643;-82
2021/12/17 14:25:35;;;;;;;16.37;5.80;;;;;;;4.69;88.77;101857.55;1636389;87;25927;-81
2021/12/17 14:28:23;;;;;;;12.30;4.97;;;;;;;4.67;88.80;101864.31;1635768;87;26250;-81